Roselle Park, NJ (07204)

3:20 AM EDT on May 05, 2015 (GMT -0400)
Roselle Park | | Change Station
CLOSE
Current Station
Personal Weather Station
Location: Roselle Park, NJ
Elevation: 90 ft
Nearby Weather Stations

Elev 90 ft 40.67 °N, 74.27 °W | Updated 33 seconds ago

Clear
Clear
--
Feels Like --
N
0.0
Wind Variable Wind from North
Gusts 2.2 mph

Today
High -- | Low -- °F
--% Chance of Precip.
Yesterday
High -- | Low -- °F
Precip. -- in
5:51 AM 7:57 PM
Full, 99% visible
Pressure 30.17 in
Visibility 10.0 miles
Clouds Clear
Dew Point Not available.
Humidity Not available.
Rainfall 0.00 in
Snow Depth Not available.
UV 0 out of 12
Pollen 11.20 out of 12
Air Quality Not available.
Flu Activity Local Activity
METAR KLDJ 050655Z AUTO 25003KT 10SM CLR 21/10 A3017 RMK AO2 T02130097

More Conditions Fewer Conditions

Pressure 30.17 in
Visibility 10.0 miles
Clouds Clear
Dew Point Not available.
Humidity Not available.
Rainfall 0.00 in
Snow Depth Not available.
UV 0 out of 12
Pollen 11.20 out of 12
Air Quality Not available.
Flu Activity Local Activity
METAR KLDJ 050655Z AUTO 25003KT 10SM CLR 21/10 A3017 RMK AO2 T02130097

More Conditions Fewer Conditions

Nepal has a long way to go to dig out and rebuild from a devastating earthquake. We have teamed up with several charities and organizations to make contributing to the relief effort as easy as possible.
How you can help: Portlight Strategies | Red Cross

10-Day Weather Forecast

Almanac

Astronomy

May. 05, 2015 Rise Set
Actual Time
Civil Twilight
Nautical Twilight
Astronomical Twilight
Moon
Length of Visible Light
Length of Day
Tomorrow will be .
, % of the Moon is Illuminated

Today's Extremes

State Highs State Lows

Community

WunderPhotos

Upload Photos

1,818,814 photos uploaded!

WunderBlogs® & News

Nearby

Air Quality

  Air Quality AQ Index Pollutant
Not available.

Snow Depth

Station Depth Elevation

Earthquake Activity

City Distance Mag. Time & Date
Minimum magnitude displayed is 2.5.

Coastal Water Temperatures

Place Temperature

Stations

Nearby Weather Stations

Station Location Temp. Windchill Dew Point Humidity Wind Precip. Elev Updated Type